sensor_id;sensor_type;location;lat;lon;timestamp;temperature;humidity
7349;DHT22;13010;-33.424;-70.614;2023-02-01T00:00:10;22.60;99.90
7349;DHT22;13010;-33.424;-70.614;2023-02-01T00:03:01;22.80;99.90
7349;DHT22;13010;-33.424;-70.614;2023-02-01T00:05:56;22.70;99.90
7349;DHT22;13010;-33.424;-70.614;2023-02-01T00:08:46;22.60;99.90
7349;DHT22;13010;-33.424;-70.614;2023-02-01T00:11:35;22.40;99.90
7349;DHT22;13010;-33.424;-70.614;2023-02-01T00:14:24;22.40;99.90
7349;DHT22;13010;-33.424;-70.614;2023-02-01T00:17:12;22.20;99.90
7349;DHT22;13010;-33.424;-70.614;2023-02-01T00:20:04;21.90;99.90
7349;DHT22;13010;-33.424;-70.614;2023-02-01T00:22:53;21.70;99.90
7349;DHT22;13010;-33.424;-70.614;2023-02-01T00:25:41;21.40;99.90
7349;DHT22;13010;-33.424;-70.614;2023-02-01T00:28:30;21.20;99.90
7349;DHT22;13010;-33.424;-70.614;2023-02-01T00:31:19;21.10;99.90
7349;DHT22;13010;-33.424;-70.614;2023-02-01T00:34:08;21.00;99.90
7349;DHT22;13010;-33.424;-70.614;2023-02-01T00:36:59;20.80;99.90
7349;DHT22;13010;-33.424;-70.614;2023-02-01T00:39:48;20.50;99.90
7349;DHT22;13010;-33.424;-70.614;2023-02-01T00:42:37;20.50;99.90
7349;DHT22;13010;-33.424;-70.614;2023-02-01T00:45:26;20.50;99.90
7349;DHT22;13010;-33.424;-70.614;2023-02-01T00:48:15;20.40;99.90
7349;DHT22;13010;-33.424;-70.614;2023-02-01T00:51:05;20.30;99.90
7349;DHT22;13010;-33.424;-70.614;2023-02-01T00:53:56;20.30;99.90
7349;DHT22;13010;-33.424;-70.614;2023-02-01T00:56:45;20.40;99.90
7349;DHT22;13010;-33.424;-70.614;2023-02-01T00:59:34;20.50;99.90
7349;DHT22;13010;-33.424;-70.614;2023-02-01T01:02:22;20.30;99.90
7349;DHT22;13010;-33.424;-70.614;2023-02-01T01:05:11;20.30;99.90
7349;DHT22;13010;-33.424;-70.614;2023-02-01T01:08:00;20.20;99.90
7349;DHT22;13010;-33.424;-70.614;2023-02-01T01:10:50;20.10;99.90
7349;DHT22;13010;-33.424;-70.614;2023-02-01T01:13:39;20.00;99.90
7349;DHT22;13010;-33.424;-70.614;2023-02-01T01:16:30;19.80;99.90
7349;DHT22;13010;-33.424;-70.614;2023-02-01T01:19:19;19.50;99.90
7349;DHT22;13010;-33.424;-70.614;2023-02-01T01:22:07;19.20;99.90
7349;DHT22;13010;-33.424;-70.614;2023-02-01T01:24:56;19.20;99.90
7349;DHT22;13010;-33.424;-70.614;2023-02-01T01:27:47;19.00;99.90
7349;DHT22;13010;-33.424;-70.614;2023-02-01T01:30:36;18.80;99.90
7349;DHT22;13010;-33.424;-70.614;2023-02-01T01:33:25;18.70;99.90
7349;DHT22;13010;-33.424;-70.614;2023-02-01T01:36:14;18.50;99.90
7349;DHT22;13010;-33.424;-70.614;2023-02-01T01:39:03;18.30;99.90
7349;DHT22;13010;-33.424;-70.614;2023-02-01T01:41:52;18.10;99.90
7349;DHT22;13010;-33.424;-70.614;2023-02-01T01:45:03;18.10;99.90
7349;DHT22;13010;-33.424;-70.614;2023-02-01T01:47:54;18.00;99.90
7349;DHT22;13010;-33.424;-70.614;2023-02-01T01:50:45;17.90;99.90
7349;DHT22;13010;-33.424;-70.614;2023-02-01T01:53:40;17.90;99.90
7349;DHT22;13010;-33.424;-70.614;2023-02-01T01:56:33;17.70;99.90
7349;DHT22;13010;-33.424;-70.614;2023-02-01T01:59:25;17.60;99.90
7349;DHT22;13010;-33.424;-70.614;2023-02-01T02:02:16;17.50;99.90
7349;DHT22;13010;-33.424;-70.614;2023-02-01T02:05:06;17.60;99.90
7349;DHT22;13010;-33.424;-70.614;2023-02-01T02:07:58;17.40;99.90
7349;DHT22;13010;-33.424;-70.614;2023-02-01T02:10:47;17.40;99.90
7349;DHT22;13010;-33.424;-70.614;2023-02-01T02:13:51;17.30;99.90
7349;DHT22;13010;-33.424;-70.614;2023-02-01T02:23:33;17.00;99.90
7349;DHT22;13010;-33.424;-70.614;2023-02-01T02:26:39;16.80;99.90
7349;DHT22;13010;-33.424;-70.614;2023-02-01T02:30:18;16.60;99.90
7349;DHT22;13010;-33.424;-70.614;2023-02-01T02:33:49;16.50;99.90
7349;DHT22;13010;-33.424;-70.614;2023-02-01T02:36:46;16.40;99.90
7349;DHT22;13010;-33.424;-70.614;2023-02-01T02:39:48;16.60;99.90
7349;DHT22;13010;-33.424;-70.614;2023-02-01T02:42:45;16.80;99.90
7349;DHT22;13010;-33.424;-70.614;2023-02-01T02:45:54;16.80;99.90
7349;DHT22;13010;-33.424;-70.614;2023-02-01T02:49:22;16.80;99.90
7349;DHT22;13010;-33.424;-70.614;2023-02-01T02:52:15;16.60;99.90
7349;DHT22;13010;-33.424;-70.614;2023-02-01T02:55:22;16.40;99.90
7349;DHT22;13010;-33.424;-70.614;2023-02-01T02:58:12;16.10;99.90
7349;DHT22;13010;-33.424;-70.614;2023-02-01T03:01:18;15.80;99.90
7349;DHT22;13010;-33.424;-70.614;2023-02-01T03:04:25;15.70;99.90
7349;DHT22;13010;-33.424;-70.614;2023-02-01T03:07:44;15.70;99.90
7349;DHT22;13010;-33.424;-70.614;2023-02-01T03:10:30;15.70;99.90
7349;DHT22;13010;-33.424;-70.614;2023-02-01T03:13:28;15.70;99.90
7349;DHT22;13010;-33.424;-70.614;2023-02-01T03:16:22;15.60;99.90
7349;DHT22;13010;-33.424;-70.614;2023-02-01T03:19:15;15.50;99.90
7349;DHT22;13010;-33.424;-70.614;2023-02-01T03:22:09;15.60;99.90
7349;DHT22;13010;-33.424;-70.614;2023-02-01T03:25:03;15.90;99.90
7349;DHT22;13010;-33.424;-70.614;2023-02-01T03:27:57;16.10;99.90
7349;DHT22;13010;-33.424;-70.614;2023-02-01T03:30:47;16.10;99.90
7349;DHT22;13010;-33.424;-70.614;2023-02-01T03:33:37;16.00;99.90
7349;DHT22;13010;-33.424;-70.614;2023-02-01T03:36:28;15.90;99.90
7349;DHT22;13010;-33.424;-70.614;2023-02-01T03:39:23;15.70;99.90
7349;DHT22;13010;-33.424;-70.614;2023-02-01T03:42:16;15.50;99.90
7349;DHT22;13010;-33.424;-70.614;2023-02-01T03:45:10;15.20;99.90
7349;DHT22;13010;-33.424;-70.614;2023-02-01T03:48:01;15.10;99.90
7349;DHT22;13010;-33.424;-70.614;2023-02-01T03:50:53;15.00;99.90
7349;DHT22;13010;-33.424;-70.614;2023-02-01T03:53:45;14.80;99.90
7349;DHT22;13010;-33.424;-70.614;2023-02-01T03:56:38;14.80;99.90
7349;DHT22;13010;-33.424;-70.614;2023-02-01T03:59:30;14.80;99.90
7349;DHT22;13010;-33.424;-70.614;2023-02-01T04:02:18;15.00;99.90
7349;DHT22;13010;-33.424;-70.614;2023-02-01T04:05:07;15.10;99.90
7349;DHT22;13010;-33.424;-70.614;2023-02-01T04:07:56;15.20;99.90
7349;DHT22;13010;-33.424;-70.614;2023-02-01T04:10:46;15.10;99.90
7349;DHT22;13010;-33.424;-70.614;2023-02-01T04:13:36;15.20;99.90
7349;DHT22;13010;-33.424;-70.614;2023-02-01T04:16:25;15.20;99.90
7349;DHT22;13010;-33.424;-70.614;2023-02-01T04:19:14;15.30;99.90
7349;DHT22;13010;-33.424;-70.614;2023-02-01T04:22:02;15.40;99.90
7349;DHT22;13010;-33.424;-70.614;2023-02-01T04:24:51;15.20;99.90
7349;DHT22;13010;-33.424;-70.614;2023-02-01T04:27:40;15.00;99.90
7349;DHT22;13010;-33.424;-70.614;2023-02-01T04:30:30;14.80;99.90
7349;DHT22;13010;-33.424;-70.614;2023-02-01T04:33:18;14.60;99.90
7349;DHT22;13010;-33.424;-70.614;2023-02-01T04:36:08;14.30;99.90
7349;DHT22;13010;-33.424;-70.614;2023-02-01T04:38:57;14.10;99.90
7349;DHT22;13010;-33.424;-70.614;2023-02-01T04:41:45;14.00;99.90
7349;DHT22;13010;-33.424;-70.614;2023-02-01T04:44:34;14.10;99.90
7349;DHT22;13010;-33.424;-70.614;2023-02-01T04:47:27;14.20;99.90
7349;DHT22;13010;-33.424;-70.614;2023-02-01T04:50:16;14.20;99.90
7349;DHT22;13010;-33.424;-70.614;2023-02-01T04:53:04;13.90;99.90
7349;DHT22;13010;-33.424;-70.614;2023-02-01T04:55:53;13.90;99.90
7349;DHT22;13010;-33.424;-70.614;2023-02-01T04:58:42;13.80;99.90
7349;DHT22;13010;-33.424;-70.614;2023-02-01T05:01:31;13.60;99.90
7349;DHT22;13010;-33.424;-70.614;2023-02-01T05:04:22;13.50;99.90
7349;DHT22;13010;-33.424;-70.614;2023-02-01T05:07:11;13.70;99.90
7349;DHT22;13010;-33.424;-70.614;2023-02-01T05:09:59;13.80;99.90
7349;DHT22;13010;-33.424;-70.614;2023-02-01T05:12:48;13.60;99.90
7349;DHT22;13010;-33.424;-70.614;2023-02-01T05:15:53;13.70;99.90
7349;DHT22;13010;-33.424;-70.614;2023-02-01T05:18:42;13.90;99.90
7349;DHT22;13010;-33.424;-70.614;2023-02-01T05:21:32;14.00;99.90
7349;DHT22;13010;-33.424;-70.614;2023-02-01T05:24:21;13.90;99.90
7349;DHT22;13010;-33.424;-70.614;2023-02-01T05:27:10;13.90;99.90
7349;DHT22;13010;-33.424;-70.614;2023-02-01T05:29:59;13.60;99.90
7349;DHT22;13010;-33.424;-70.614;2023-02-01T05:32:50;13.30;99.90
7349;DHT22;13010;-33.424;-70.614;2023-02-01T05:35:39;13.10;99.90
7349;DHT22;13010;-33.424;-70.614;2023-02-01T05:38:30;13.00;99.90
7349;DHT22;13010;-33.424;-70.614;2023-02-01T05:41:20;13.10;99.90
7349;DHT22;13010;-33.424;-70.614;2023-02-01T05:44:09;13.30;99.90
7349;DHT22;13010;-33.424;-70.614;2023-02-01T05:46:58;13.30;99.90
7349;DHT22;13010;-33.424;-70.614;2023-02-01T05:49:47;13.20;99.90
7349;DHT22;13010;-33.424;-70.614;2023-02-01T05:52:36;13.10;99.90
7349;DHT22;13010;-33.424;-70.614;2023-02-01T05:55:27;13.10;99.90
7349;DHT22;13010;-33.424;-70.614;2023-02-01T05:58:15;13.40;99.90
7349;DHT22;13010;-33.424;-70.614;2023-02-01T06:01:05;13.60;99.90
7349;DHT22;13010;-33.424;-70.614;2023-02-01T06:03:53;13.70;99.90
7349;DHT22;13010;-33.424;-70.614;2023-02-01T06:06:42;13.80;99.90
7349;DHT22;13010;-33.424;-70.614;2023-02-01T06:09:31;13.90;99.90
7349;DHT22;13010;-33.424;-70.614;2023-02-01T06:12:21;13.90;99.90
7349;DHT22;13010;-33.424;-70.614;2023-02-01T06:15:10;14.00;99.90
7349;DHT22;13010;-33.424;-70.614;2023-02-01T06:18:01;13.90;99.90
7349;DHT22;13010;-33.424;-70.614;2023-02-01T06:20:53;14.00;99.90
7349;DHT22;13010;-33.424;-70.614;2023-02-01T06:23:43;14.00;99.90
7349;DHT22;13010;-33.424;-70.614;2023-02-01T06:26:31;13.90;99.90
7349;DHT22;13010;-33.424;-70.614;2023-02-01T06:29:22;13.80;99.90
7349;DHT22;13010;-33.424;-70.614;2023-02-01T06:32:12;13.80;99.90
7349;DHT22;13010;-33.424;-70.614;2023-02-01T06:35:01;13.70;99.90
7349;DHT22;13010;-33.424;-70.614;2023-02-01T06:37:50;13.60;99.90
7349;DHT22;13010;-33.424;-70.614;2023-02-01T06:40:39;13.30;99.90
7349;DHT22;13010;-33.424;-70.614;2023-02-01T06:43:28;13.30;99.90
7349;DHT22;13010;-33.424;-70.614;2023-02-01T06:46:19;13.50;99.90
7349;DHT22;13010;-33.424;-70.614;2023-02-01T06:49:08;13.50;99.90
7349;DHT22;13010;-33.424;-70.614;2023-02-01T06:51:56;13.50;99.90
7349;DHT22;13010;-33.424;-70.614;2023-02-01T06:54:46;13.40;99.90
7349;DHT22;13010;-33.424;-70.614;2023-02-01T06:57:35;13.30;99.90
7349;DHT22;13010;-33.424;-70.614;2023-02-01T07:00:24;13.00;99.90
7349;DHT22;13010;-33.424;-70.614;2023-02-01T07:03:14;13.10;99.90
7349;DHT22;13010;-33.424;-70.614;2023-02-01T07:06:03;13.00;99.90
7349;DHT22;13010;-33.424;-70.614;2023-02-01T07:08:53;12.80;99.90
7349;DHT22;13010;-33.424;-70.614;2023-02-01T07:11:42;12.80;99.90
7349;DHT22;13010;-33.424;-70.614;2023-02-01T07:14:31;12.80;99.90
7349;DHT22;13010;-33.424;-70.614;2023-02-01T07:17:20;12.80;99.90
7349;DHT22;13010;-33.424;-70.614;2023-02-01T07:20:11;12.80;99.90
7349;DHT22;13010;-33.424;-70.614;2023-02-01T07:23:00;12.60;99.90
7349;DHT22;13010;-33.424;-70.614;2023-02-01T07:25:48;12.40;99.90
7349;DHT22;13010;-33.424;-70.614;2023-02-01T07:28:41;12.20;99.90
7349;DHT22;13010;-33.424;-70.614;2023-02-01T07:31:30;12.10;99.90
7349;DHT22;13010;-33.424;-70.614;2023-02-01T07:34:19;12.10;99.90
7349;DHT22;13010;-33.424;-70.614;2023-02-01T07:37:09;12.20;99.90
7349;DHT22;13010;-33.424;-70.614;2023-02-01T07:39:58;12.20;99.90
7349;DHT22;13010;-33.424;-70.614;2023-02-01T07:42:49;12.20;99.90
7349;DHT22;13010;-33.424;-70.614;2023-02-01T07:45:38;12.00;99.90
7349;DHT22;13010;-33.424;-70.614;2023-02-01T07:48:27;11.90;99.90
7349;DHT22;13010;-33.424;-70.614;2023-02-01T07:51:17;11.80;99.90
7349;DHT22;13010;-33.424;-70.614;2023-02-01T07:54:08;11.70;99.90
7349;DHT22;13010;-33.424;-70.614;2023-02-01T07:56:57;11.70;99.90
7349;DHT22;13010;-33.424;-70.614;2023-02-01T07:59:45;11.50;99.90
7349;DHT22;13010;-33.424;-70.614;2023-02-01T08:02:47;11.40;99.90
7349;DHT22;13010;-33.424;-70.614;2023-02-01T08:05:36;11.50;99.90
7349;DHT22;13010;-33.424;-70.614;2023-02-01T08:08:24;11.40;99.90
7349;DHT22;13010;-33.424;-70.614;2023-02-01T08:11:19;11.30;99.90
7349;DHT22;13010;-33.424;-70.614;2023-02-01T08:14:07;11.10;99.90
7349;DHT22;13010;-33.424;-70.614;2023-02-01T08:16:56;10.90;99.90
7349;DHT22;13010;-33.424;-70.614;2023-02-01T08:19:45;11.20;99.90
7349;DHT22;13010;-33.424;-70.614;2023-02-01T08:22:34;11.60;99.90
7349;DHT22;13010;-33.424;-70.614;2023-02-01T08:25:23;11.80;99.90
7349;DHT22;13010;-33.424;-70.614;2023-02-01T08:28:15;11.90;99.90
7349;DHT22;13010;-33.424;-70.614;2023-02-01T08:31:08;11.80;99.90
7349;DHT22;13010;-33.424;-70.614;2023-02-01T08:33:59;11.90;99.90
7349;DHT22;13010;-33.424;-70.614;2023-02-01T08:36:48;12.00;99.90
7349;DHT22;13010;-33.424;-70.614;2023-02-01T08:39:38;11.90;99.90
7349;DHT22;13010;-33.424;-70.614;2023-02-01T08:42:29;11.70;99.90
7349;DHT22;13010;-33.424;-70.614;2023-02-01T08:45:36;11.60;99.90
7349;DHT22;13010;-33.424;-70.614;2023-02-01T08:48:25;11.40;99.90
7349;DHT22;13010;-33.424;-70.614;2023-02-01T08:51:16;11.30;99.90
7349;DHT22;13010;-33.424;-70.614;2023-02-01T08:54:05;11.20;99.90
7349;DHT22;13010;-33.424;-70.614;2023-02-01T08:56:54;11.20;99.90
7349;DHT22;13010;-33.424;-70.614;2023-02-01T08:59:43;11.30;99.90
7349;DHT22;13010;-33.424;-70.614;2023-02-01T09:02:34;11.10;99.90
7349;DHT22;13010;-33.424;-70.614;2023-02-01T09:05:22;10.80;99.90
7349;DHT22;13010;-33.424;-70.614;2023-02-01T09:08:13;10.50;99.90
7349;DHT22;13010;-33.424;-70.614;2023-02-01T09:11:03;10.70;99.90
7349;DHT22;13010;-33.424;-70.614;2023-02-01T09:13:52;10.60;99.90
7349;DHT22;13010;-33.424;-70.614;2023-02-01T09:16:41;10.50;99.90
7349;DHT22;13010;-33.424;-70.614;2023-02-01T09:19:32;10.40;99.90
7349;DHT22;13010;-33.424;-70.614;2023-02-01T09:22:21;10.10;99.90
7349;DHT22;13010;-33.424;-70.614;2023-02-01T09:25:10;10.10;99.90
7349;DHT22;13010;-33.424;-70.614;2023-02-01T09:27:59;10.00;99.90
7349;DHT22;13010;-33.424;-70.614;2023-02-01T09:30:49;9.90;99.90
7349;DHT22;13010;-33.424;-70.614;2023-02-01T09:33:43;10.20;99.90
7349;DHT22;13010;-33.424;-70.614;2023-02-01T09:36:34;10.00;99.90
7349;DHT22;13010;-33.424;-70.614;2023-02-01T09:39:23;9.80;99.90
7349;DHT22;13010;-33.424;-70.614;2023-02-01T09:42:46;9.60;99.90
7349;DHT22;13010;-33.424;-70.614;2023-02-01T09:45:46;9.50;99.90
7349;DHT22;13010;-33.424;-70.614;2023-02-01T09:48:40;9.50;99.90
7349;DHT22;13010;-33.424;-70.614;2023-02-01T09:51:34;9.40;99.90
7349;DHT22;13010;-33.424;-70.614;2023-02-01T09:54:26;9.50;99.90
7349;DHT22;13010;-33.424;-70.614;2023-02-01T09:57:19;9.50;99.90
7349;DHT22;13010;-33.424;-70.614;2023-02-01T10:00:17;9.60;99.90
7349;DHT22;13010;-33.424;-70.614;2023-02-01T10:03:11;9.80;99.90
7349;DHT22;13010;-33.424;-70.614;2023-02-01T10:06:22;10.00;99.90
7349;DHT22;13010;-33.424;-70.614;2023-02-01T10:09:56;9.90;99.90
7349;DHT22;13010;-33.424;-70.614;2023-02-01T10:13:03;9.90;99.90
7349;DHT22;13010;-33.424;-70.614;2023-02-01T10:19:29;10.30;99.90
7349;DHT22;13010;-33.424;-70.614;2023-02-01T10:22:30;10.40;99.90
7349;DHT22;13010;-33.424;-70.614;2023-02-01T10:25:31;10.50;99.90
7349;DHT22;13010;-33.424;-70.614;2023-02-01T10:28:22;10.60;99.90
7349;DHT22;13010;-33.424;-70.614;2023-02-01T10:31:12;10.80;99.90
7349;DHT22;13010;-33.424;-70.614;2023-02-01T10:34:06;11.00;99.90
7349;DHT22;13010;-33.424;-70.614;2023-02-01T10:37:01;11.60;99.90
7349;DHT22;13010;-33.424;-70.614;2023-02-01T10:39:52;12.70;99.90
7349;DHT22;13010;-33.424;-70.614;2023-02-01T10:42:44;13.90;99.90
7349;DHT22;13010;-33.424;-70.614;2023-02-01T10:45:33;15.20;99.90
7349;DHT22;13010;-33.424;-70.614;2023-02-01T10:48:23;16.20;99.90
7349;DHT22;13010;-33.424;-70.614;2023-02-01T10:51:16;15.90;99.90
7349;DHT22;13010;-33.424;-70.614;2023-02-01T10:54:14;15.00;99.90
7349;DHT22;13010;-33.424;-70.614;2023-02-01T10:57:09;14.40;99.90
7349;DHT22;13010;-33.424;-70.614;2023-02-01T11:00:06;14.40;99.90
7349;DHT22;13010;-33.424;-70.614;2023-02-01T11:03:31;15.50;99.90
7349;DHT22;13010;-33.424;-70.614;2023-02-01T11:06:27;15.30;99.90
7349;DHT22;13010;-33.424;-70.614;2023-02-01T11:09:19;15.60;99.90
7349;DHT22;13010;-33.424;-70.614;2023-02-01T11:12:28;15.40;99.90
7349;DHT22;13010;-33.424;-70.614;2023-02-01T11:15:25;16.40;99.90
7349;DHT22;13010;-33.424;-70.614;2023-02-01T11:18:20;19.90;99.90
7349;DHT22;13010;-33.424;-70.614;2023-02-01T11:21:15;21.90;99.90
7349;DHT22;13010;-33.424;-70.614;2023-02-01T11:24:06;23.50;99.90
7349;DHT22;13010;-33.424;-70.614;2023-02-01T11:26:57;24.60;99.90
7349;DHT22;13010;-33.424;-70.614;2023-02-01T11:29:51;24.70;99.90
7349;DHT22;13010;-33.424;-70.614;2023-02-01T11:32:46;26.10;99.90
7349;DHT22;13010;-33.424;-70.614;2023-02-01T11:35:38;27.40;99.90
7349;DHT22;13010;-33.424;-70.614;2023-02-01T11:38:29;29.30;99.90
7349;DHT22;13010;-33.424;-70.614;2023-02-01T11:41:23;30.20;99.90
7349;DHT22;13010;-33.424;-70.614;2023-02-01T11:44:22;30.90;94.60
7349;DHT22;13010;-33.424;-70.614;2023-02-01T11:47:29;31.90;90.90
7349;DHT22;13010;-33.424;-70.614;2023-02-01T11:50:27;32.60;77.50
7349;DHT22;13010;-33.424;-70.614;2023-02-01T11:53:25;33.20;64.70
7349;DHT22;13010;-33.424;-70.614;2023-02-01T11:56:22;33.80;59.40
7349;DHT22;13010;-33.424;-70.614;2023-02-01T11:59:21;34.00;52.80
7349;DHT22;13010;-33.424;-70.614;2023-02-01T12:02:44;33.90;52.40
7349;DHT22;13010;-33.424;-70.614;2023-02-01T12:05:45;35.60;47.10
7349;DHT22;13010;-33.424;-70.614;2023-02-01T12:08:55;34.40;44.30
7349;DHT22;13010;-33.424;-70.614;2023-02-01T12:11:53;35.90;42.90
7349;DHT22;13010;-33.424;-70.614;2023-02-01T12:15:15;36.70;39.30
7349;DHT22;13010;-33.424;-70.614;2023-02-01T12:21:47;38.80;31.40
7349;DHT22;13010;-33.424;-70.614;2023-02-01T12:25:03;39.20;29.50
7349;DHT22;13010;-33.424;-70.614;2023-02-01T12:28:29;38.90;28.20
7349;DHT22;13010;-33.424;-70.614;2023-02-01T12:31:36;38.80;29.30
7349;DHT22;13010;-33.424;-70.614;2023-02-01T12:34:56;38.30;28.90
7349;DHT22;13010;-33.424;-70.614;2023-02-01T12:38:02;40.00;27.80
7349;DHT22;13010;-33.424;-70.614;2023-02-01T12:41:03;40.20;26.20
7349;DHT22;13010;-33.424;-70.614;2023-02-01T12:43:58;38.00;27.60
7349;DHT22;13010;-33.424;-70.614;2023-02-01T12:46:50;40.00;27.10
7349;DHT22;13010;-33.424;-70.614;2023-02-01T12:49:52;42.30;24.90
7349;DHT22;13010;-33.424;-70.614;2023-02-01T12:52:46;41.40;23.70
7349;DHT22;13010;-33.424;-70.614;2023-02-01T12:55:41;41.10;23.80
7349;DHT22;13010;-33.424;-70.614;2023-02-01T12:58:39;40.70;24.10
7349;DHT22;13010;-33.424;-70.614;2023-02-01T13:01:33;40.20;24.80
7349;DHT22;13010;-33.424;-70.614;2023-02-01T13:04:28;41.40;22.80
7349;DHT22;13010;-33.424;-70.614;2023-02-01T13:07:21;42.40;22.70
7349;DHT22;13010;-33.424;-70.614;2023-02-01T13:10:16;43.30;21.50
7349;DHT22;13010;-33.424;-70.614;2023-02-01T13:13:14;43.90;20.20
7349;DHT22;13010;-33.424;-70.614;2023-02-01T13:16:14;44.00;19.70
7349;DHT22;13010;-33.424;-70.614;2023-02-01T13:19:10;41.90;20.50
7349;DHT22;13010;-33.424;-70.614;2023-02-01T13:22:07;41.50;21.80
7349;DHT22;13010;-33.424;-70.614;2023-02-01T13:25:00;40.10;23.20
7349;DHT22;13010;-33.424;-70.614;2023-02-01T13:27:54;43.60;21.40
7349;DHT22;13010;-33.424;-70.614;2023-02-01T13:31:17;46.00;18.50
7349;DHT22;13010;-33.424;-70.614;2023-02-01T13:37:54;46.60;16.60
7349;DHT22;13010;-33.424;-70.614;2023-02-01T13:40:49;47.20;15.40
7349;DHT22;13010;-33.424;-70.614;2023-02-01T13:43:46;44.10;16.50
7349;DHT22;13010;-33.424;-70.614;2023-02-01T13:46:43;46.40;16.00
7349;DHT22;13010;-33.424;-70.614;2023-02-01T13:49:40;46.30;16.30
7349;DHT22;13010;-33.424;-70.614;2023-02-01T13:52:38;43.50;16.70
7349;DHT22;13010;-33.424;-70.614;2023-02-01T13:55:31;42.10;18.60
7349;DHT22;13010;-33.424;-70.614;2023-02-01T13:58:22;40.40;19.60
7349;DHT22;13010;-33.424;-70.614;2023-02-01T14:01:35;40.50;20.80
7349;DHT22;13010;-33.424;-70.614;2023-02-01T14:04:47;39.70;20.50
7349;DHT22;13010;-33.424;-70.614;2023-02-01T14:07:40;41.70;20.20
7349;DHT22;13010;-33.424;-70.614;2023-02-01T14:10:49;42.90;18.80
7349;DHT22;13010;-33.424;-70.614;2023-02-01T14:13:41;44.40;17.80
7349;DHT22;13010;-33.424;-70.614;2023-02-01T14:16:31;44.90;16.90
7349;DHT22;13010;-33.424;-70.614;2023-02-01T14:19:23;45.90;16.40
7349;DHT22;13010;-33.424;-70.614;2023-02-01T14:22:34;47.70;16.40
7349;DHT22;13010;-33.424;-70.614;2023-02-01T14:25:24;44.40;16.40
7349;DHT22;13010;-33.424;-70.614;2023-02-01T14:28:21;46.60;16.10
7349;DHT22;13010;-33.424;-70.614;2023-02-01T14:31:48;45.30;16.00
7349;DHT22;13010;-33.424;-70.614;2023-02-01T14:34:49;48.10;14.20
7349;DHT22;13010;-33.424;-70.614;2023-02-01T14:37:42;48.50;15.40
7349;DHT22;13010;-33.424;-70.614;2023-02-01T14:40:32;45.80;15.10
7349;DHT22;13010;-33.424;-70.614;2023-02-01T14:44:12;48.00;14.70
7349;DHT22;13010;-33.424;-70.614;2023-02-01T14:50:27;51.10;11.70
7349;DHT22;13010;-33.424;-70.614;2023-02-01T14:53:22;49.40;13.00
7349;DHT22;13010;-33.424;-70.614;2023-02-01T14:56:17;50.40;12.20
7349;DHT22;13010;-33.424;-70.614;2023-02-01T14:59:12;49.20;12.70
7349;DHT22;13010;-33.424;-70.614;2023-02-01T15:02:01;50.30;12.00
7349;DHT22;13010;-33.424;-70.614;2023-02-01T15:04:56;51.90;11.40
7349;DHT22;13010;-33.424;-70.614;2023-02-01T15:07:45;51.30;11.60
7349;DHT22;13010;-33.424;-70.614;2023-02-01T15:10:44;51.30;12.50
7349;DHT22;13010;-33.424;-70.614;2023-02-01T15:13:34;52.30;11.00
7349;DHT22;13010;-33.424;-70.614;2023-02-01T15:16:24;50.50;11.30
7349;DHT22;13010;-33.424;-70.614;2023-02-01T15:19:15;50.60;12.20
7349;DHT22;13010;-33.424;-70.614;2023-02-01T15:22:04;48.30;12.10
7349;DHT22;13010;-33.424;-70.614;2023-02-01T15:24:56;49.10;12.70
7349;DHT22;13010;-33.424;-70.614;2023-02-01T15:27:49;50.30;13.10
7349;DHT22;13010;-33.424;-70.614;2023-02-01T15:30:38;47.10;13.80
7349;DHT22;13010;-33.424;-70.614;2023-02-01T15:33:28;45.80;14.20
7349;DHT22;13010;-33.424;-70.614;2023-02-01T15:36:19;45.30;14.90
7349;DHT22;13010;-33.424;-70.614;2023-02-01T15:39:15;43.70;15.30
7349;DHT22;13010;-33.424;-70.614;2023-02-01T15:42:11;43.40;16.70
7349;DHT22;13010;-33.424;-70.614;2023-02-01T15:45:04;44.30;16.00
7349;DHT22;13010;-33.424;-70.614;2023-02-01T15:47:55;45.40;15.10
7349;DHT22;13010;-33.424;-70.614;2023-02-01T15:50:44;45.50;15.60
7349;DHT22;13010;-33.424;-70.614;2023-02-01T15:53:33;45.00;16.60
7349;DHT22;13010;-33.424;-70.614;2023-02-01T15:56:26;44.80;15.70
7349;DHT22;13010;-33.424;-70.614;2023-02-01T15:59:17;46.50;16.60
7349;DHT22;13010;-33.424;-70.614;2023-02-01T16:02:32;46.60;15.10
7349;DHT22;13010;-33.424;-70.614;2023-02-01T16:05:32;46.90;14.30
7349;DHT22;13010;-33.424;-70.614;2023-02-01T16:08:23;46.90;15.20
7349;DHT22;13010;-33.424;-70.614;2023-02-01T16:11:23;45.30;15.20
7349;DHT22;13010;-33.424;-70.614;2023-02-01T16:14:14;46.00;15.10
7349;DHT22;13010;-33.424;-70.614;2023-02-01T16:17:07;45.60;16.40
7349;DHT22;13010;-33.424;-70.614;2023-02-01T16:19:58;47.00;15.80
7349;DHT22;13010;-33.424;-70.614;2023-02-01T16:22:48;47.10;14.80
7349;DHT22;13010;-33.424;-70.614;2023-02-01T16:25:40;47.70;15.20
7349;DHT22;13010;-33.424;-70.614;2023-02-01T16:28:29;46.50;14.60
7349;DHT22;13010;-33.424;-70.614;2023-02-01T16:31:20;46.40;16.30
7349;DHT22;13010;-33.424;-70.614;2023-02-01T16:34:13;48.00;15.60
7349;DHT22;13010;-33.424;-70.614;2023-02-01T16:37:04;49.70;13.10
7349;DHT22;13010;-33.424;-70.614;2023-02-01T16:39:54;47.60;14.80
7349;DHT22;13010;-33.424;-70.614;2023-02-01T16:42:43;47.10;13.80
7349;DHT22;13010;-33.424;-70.614;2023-02-01T16:45:32;44.40;15.20
7349;DHT22;13010;-33.424;-70.614;2023-02-01T16:48:23;45.60;17.00
7349;DHT22;13010;-33.424;-70.614;2023-02-01T16:51:14;47.10;14.90
7349;DHT22;13010;-33.424;-70.614;2023-02-01T16:54:07;44.40;15.80
7349;DHT22;13010;-33.424;-70.614;2023-02-01T16:56:56;44.80;15.70
7349;DHT22;13010;-33.424;-70.614;2023-02-01T16:59:45;43.70;15.10
7349;DHT22;13010;-33.424;-70.614;2023-02-01T17:02:34;44.00;17.00
7349;DHT22;13010;-33.424;-70.614;2023-02-01T17:05:23;45.80;16.70
7349;DHT22;13010;-33.424;-70.614;2023-02-01T17:08:14;47.60;14.20
7349;DHT22;13010;-33.424;-70.614;2023-02-01T17:11:09;46.70;15.40
7349;DHT22;13010;-33.424;-70.614;2023-02-01T17:14:04;46.30;15.40
7349;DHT22;13010;-33.424;-70.614;2023-02-01T17:17:01;45.50;16.30
7349;DHT22;13010;-33.424;-70.614;2023-02-01T17:19:51;47.40;15.70
7349;DHT22;13010;-33.424;-70.614;2023-02-01T17:22:41;48.90;15.50
7349;DHT22;13010;-33.424;-70.614;2023-02-01T17:25:31;47.30;14.50
7349;DHT22;13010;-33.424;-70.614;2023-02-01T17:28:22;46.60;14.90
7349;DHT22;13010;-33.424;-70.614;2023-02-01T17:31:13;47.00;15.60
7349;DHT22;13010;-33.424;-70.614;2023-02-01T17:34:03;47.10;15.30
7349;DHT22;13010;-33.424;-70.614;2023-02-01T17:36:52;47.90;15.20
7349;DHT22;13010;-33.424;-70.614;2023-02-01T17:39:41;46.90;14.00
7349;DHT22;13010;-33.424;-70.614;2023-02-01T17:42:43;46.80;14.10
7349;DHT22;13010;-33.424;-70.614;2023-02-01T17:45:39;47.10;14.40
7349;DHT22;13010;-33.424;-70.614;2023-02-01T17:48:32;47.30;14.70
7349;DHT22;13010;-33.424;-70.614;2023-02-01T17:51:23;46.10;15.40
7349;DHT22;13010;-33.424;-70.614;2023-02-01T17:54:13;44.30;15.70
7349;DHT22;13010;-33.424;-70.614;2023-02-01T17:57:04;43.70;14.80
7349;DHT22;13010;-33.424;-70.614;2023-02-01T17:59:57;42.90;16.40
7349;DHT22;13010;-33.424;-70.614;2023-02-01T18:02:48;43.50;16.00
7349;DHT22;13010;-33.424;-70.614;2023-02-01T18:05:40;44.00;14.80